aviador You're here:

KGPH Decoded Metar

in
Report Time2017-11-24 01:55:00
UTC Time2017-11-24 01:58:01
Flight Rules vfr VFR
WindCalm
Visibility9999 m
Phenomena:N/A
Clouds:N/A
Expected CloudBase > 2,000 ft AGL from Temp-Dew spread
CeilingNone
Temp05°C
Dew Point00°C (70% RH)
AAT3.0°C
QNH1014 hPa
Raw Report
KGPH 240155Z AUTO 00000KT 10SM CLR 05/00 A2993 RMK AO2=

Extra information for KGPH:More info

Social comments